Time;durP1;ratioP1;P1;durP2;ratioP2;P2;SDS_P1;SDS_P2;PMS_P1;PMS_P2;Temp;Humidity;BMP_temperature;BMP_pressure;BME280_temperature;BME280_humidity;BME280_pressure;Samples;Min_cycle;Max_cycle;Signal;HPM_P1;HPM_P2
2021/03/15 00:00:42;;;;;;;;;;;;;;;;;;5068367;28;890;-60
2021/03/15 00:03:08;;;;;;;;;;;;;;;;;;5040248;28;1814;-60
2021/03/15 00:05:34;;;;;;;;;;;;;;;;;;5046621;28;838;-59
2021/03/15 00:07:59;;;;;;;;;;;;;;;;;;5047171;28;1991;-60
2021/03/15 00:10:24;;;;;;;;;;;;;;;;;;5042696;28;1478;-59
2021/03/15 00:12:50;;;;;;;;;;;;;;;;;;5030592;28;914;-60
2021/03/15 00:15:17;;;;;;;;;;;;;;;;;;5028172;28;1135;-59
2021/03/15 00:17:43;;;;;;;;;;;;;;;;;;5046743;28;1062;-60
2021/03/15 00:20:09;;;;;;;;;;;;;;;;;;5047275;28;1040;-59
2021/03/15 00:22:35;;;;;;;;;;;;;;;;;;5049170;28;1236;-63
2021/03/15 00:25:00;;;;;;;;;;;;;;;;;;5048471;28;1042;-60
2021/03/15 00:27:26;;;;;;;;;;;;;;;;;;5047773;28;1977;-61
2021/03/15 00:29:51;;;;;;;;;;;;;;;;;;5049477;28;1175;-60
2021/03/15 00:32:18;;;;;;;;;;;;;;;;;;5048159;28;942;-63
2021/03/15 00:34:43;;;;;;;;;;;;;;;;;;5048018;28;883;-63
2021/03/15 00:37:09;;;;;;;;;;;;;;;;;;5047772;28;922;-61
2021/03/15 00:39:34;;;;;;;;;;;;;;;;;;5047247;28;970;-64
2021/03/15 00:41:59;;;;;;;;;;;;;;;;;;5046140;28;842;-62
2021/03/15 00:44:25;;;;;;;;;;;;;;;;;;5048718;28;955;-61
2021/03/15 00:46:50;;;;;;;;;;;;;;;;;;5049462;28;1898;-62
2021/03/15 00:49:16;;;;;;;;;;;;;;;;;;5042772;28;1386;-61
2021/03/15 00:51:41;;;;;;;;;;;;;;;;;;5030370;28;1253;-60
2021/03/15 00:54:07;;;;;;;;;;;;;;;;;;5052281;28;1061;-62
2021/03/15 00:56:32;;;;;;;;;;;;;;;;;;5035185;28;1799;-60
2021/03/15 00:58:57;;;;;;;;;;;;;;;;;;5046087;28;799;-58
2021/03/15 01:01:23;;;;;;;;;;;;;;;;;;5046302;28;895;-58
2021/03/15 01:03:48;;;;;;;;;;;;;;;;;;5047666;28;891;-62
2021/03/15 01:06:14;;;;;;;;;;;;;;;;;;5046639;28;831;-61
2021/03/15 01:08:39;;;;;;;;;;;;;;;;;;5047698;28;1894;-59
2021/03/15 01:11:05;;;;;;;;;;;;;;;;;;5048291;28;835;-59
2021/03/15 01:13:30;;;;;;;;;;;;;;;;;;5048545;28;834;-59
2021/03/15 01:15:56;;;;;;;;;;;;;;;;;;5047200;28;1419;-60
2021/03/15 01:18:21;;;;;;;;;;;;;;;;;;5028816;28;1022;-60
2021/03/15 01:20:46;;;;;;;;;;;;;;;;;;5026741;28;958;-61
2021/03/15 01:23:12;;;;;;;;;;;;;;;;;;5026620;28;934;-59
2021/03/15 01:25:38;;;;;;;;;;;;;;;;;;5026091;28;861;-59
2021/03/15 01:28:05;;;;;;;;;;;;;;;;;;5026534;28;1968;-59
2021/03/15 01:30:31;;;;;;;;;;;;;;;;;;5026352;28;843;-59
2021/03/15 01:32:57;;;;;;;;;;;;;;;;;;5026221;28;934;-61
2021/03/15 01:35:23;;;;;;;;;;;;;;;;;;5026592;28;906;-59
2021/03/15 01:37:48;;;;;;;;;;;;;;;;;;5026963;28;827;-58
2021/03/15 01:40:14;;;;;;;;;;;;;;;;;;5025829;28;909;-61
2021/03/15 01:42:39;;;;;;;;;;;;;;;;;;5030411;28;1499;-59
2021/03/15 01:45:05;;;;;;;;;;;;;;;;;;5046215;28;847;-58
2021/03/15 01:47:31;;;;;;;;;;;;;;;;;;5045955;28;2009;-58
2021/03/15 01:49:57;;;;;;;;;;;;;;;;;;5046664;28;864;-59
2021/03/15 01:52:22;;;;;;;;;;;;;;;;;;5046063;28;824;-59
2021/03/15 01:54:48;;;;;;;;;;;;;;;;;;5064729;28;1128;-59
2021/03/15 01:57:13;;;;;;;;;;;;;;;;;;5066091;28;881;-61
2021/03/15 01:59:39;;;;;;;;;;;;;;;;;;5065736;28;883;-60
2021/03/15 02:02:04;;;;;;;;;;;;;;;;;;5065200;28;803;-60
2021/03/15 02:04:30;;;;;;;;;;;;;;;;;;5065345;28;869;-60
2021/03/15 02:06:55;;;;;;;;;;;;;;;;;;5065009;28;1961;-59
2021/03/15 02:09:21;;;;;;;;;;;;;;;;;;5066481;28;916;-59
2021/03/15 02:11:49;;;;;;;;;;;;;;;;;;5065826;28;860;-59
2021/03/15 02:14:46;;;;;;;;;;;;;;;;;;5065420;28;835;-63
2021/03/15 02:17:18;;;;;;;;;;;;;;;;;;5050309;28;1339;-58
2021/03/15 02:19:55;;;;;;;;;;;;;;;;;;5029504;28;1359;-61
2021/03/15 02:22:24;;;;;;;;;;;;;;;;;;5026806;28;882;-59
2021/03/15 02:25:08;;;;;;;;;;;;;;;;;;5039722;28;1127;-58
2021/03/15 02:27:36;;;;;;;;;;;;;;;;;;5045570;28;1963;-60
2021/03/15 02:30:20;;;;;;;;;;;;;;;;;;5045913;28;839;-58
2021/03/15 02:32:52;;;;;;;;;;;;;;;;;;5028155;28;1093;-64
2021/03/15 02:35:19;;;;;;;;;;;;;;;;;;5026855;28;898;-62
2021/03/15 02:37:46;;;;;;;;;;;;;;;;;;5025656;28;816;-63
2021/03/15 02:40:16;;;;;;;;;;;;;;;;;;5025069;28;1042;-58
2021/03/15 02:42:43;;;;;;;;;;;;;;;;;;5025284;28;954;-58
2021/03/15 02:45:09;;;;;;;;;;;;;;;;;;5025292;28;875;-60
2021/03/15 02:47:37;;;;;;;;;;;;;;;;;;5025150;28;1972;-60
2021/03/15 02:50:05;;;;;;;;;;;;;;;;;;5025134;28;882;-60
2021/03/15 02:52:31;;;;;;;;;;;;;;;;;;5024689;28;1171;-57
2021/03/15 02:54:58;;;;;;;;;;;;;;;;;;5063679;28;1176;-58
2021/03/15 02:57:26;;;;;;;;;;;;;;;;;;5048315;28;1561;-59
2021/03/15 02:59:52;;;;;;;;;;;;;;;;;;5026045;28;890;-58
2021/03/15 03:02:18;;;;;;;;;;;;;;;;;;5025603;28;811;-58
2021/03/15 03:04:45;;;;;;;;;;;;;;;;;;5026070;28;847;-58
2021/03/15 03:07:11;;;;;;;;;;;;;;;;;;5029059;28;1902;-58
2021/03/15 03:09:37;;;;;;;;;;;;;;;;;;5028929;28;987;-58
2021/03/15 03:12:04;;;;;;;;;;;;;;;;;;5028661;28;854;-58
2021/03/15 03:14:29;;;;;;;;;;;;;;;;;;5029413;28;887;-61
2021/03/15 03:16:56;;;;;;;;;;;;;;;;;;5028415;28;828;-60
2021/03/15 03:19:22;;;;;;;;;;;;;;;;;;5029182;28;875;-59
2021/03/15 03:21:49;;;;;;;;;;;;;;;;;;5029043;28;1372;-61
2021/03/15 03:24:15;;;;;;;;;;;;;;;;;;5044719;28;893;-60
2021/03/15 03:26:42;;;;;;;;;;;;;;;;;;5028501;28;886;-63
2021/03/15 03:29:09;;;;;;;;;;;;;;;;;;5028789;28;1938;-64
2021/03/15 03:31:36;;;;;;;;;;;;;;;;;;5028823;28;855;-62
2021/03/15 03:34:02;;;;;;;;;;;;;;;;;;5028595;28;872;-63
2021/03/15 03:36:28;;;;;;;;;;;;;;;;;;5028284;28;839;-61
2021/03/15 03:38:54;;;;;;;;;;;;;;;;;;5028943;28;819;-62
2021/03/15 03:41:20;;;;;;;;;;;;;;;;;;5029630;28;648;-62
2021/03/15 03:43:45;;;;;;;;;;;;;;;;;;5029784;28;867;-60
2021/03/15 03:46:12;;;;;;;;;;;;;;;;;;5029359;28;905;-61
2021/03/15 03:48:38;;;;;;;;;;;;;;;;;;5027972;28;1930;-62
2021/03/15 03:51:04;;;;;;;;;;;;;;;;;;5028138;28;1612;-63
2021/03/15 03:53:50;;;;;;;;;;;;;;;;;;5044561;28;1195;-63
2021/03/15 03:56:29;;;;;;;;;;;;;;;;;;5051728;28;1294;-62
2021/03/15 03:58:57;;;;;;;;;;;;;;;;;;5028425;28;909;-62
2021/03/15 04:01:44;;;;;;;;;;;;;;;;;;5028102;28;891;-62
2021/03/15 04:04:11;;;;;;;;;;;;;;;;;;5027228;28;1691;-64
2021/03/15 04:06:39;;;;;;;;;;;;;;;;;;5028667;28;913;-64
2021/03/15 04:09:14;;;;;;;;;;;;;;;;;;5028999;28;2023;-62
2021/03/15 04:11:42;;;;;;;;;;;;;;;;;;5029287;28;843;-62
2021/03/15 04:14:07;;;;;;;;;;;;;;;;;;5029401;28;958;-64
2021/03/15 04:16:34;;;;;;;;;;;;;;;;;;5031760;28;1559;-64
2021/03/15 04:19:04;;;;;;;;;;;;;;;;;;5036680;28;862;-65
2021/03/15 04:21:31;;;;;;;;;;;;;;;;;;5038809;28;1195;-61
2021/03/15 04:23:57;;;;;;;;;;;;;;;;;;5048094;28;1059;-60
2021/03/15 04:26:24;;;;;;;;;;;;;;;;;;5045047;28;1459;-65
2021/03/15 04:28:50;;;;;;;;;;;;;;;;;;5049768;28;1987;-60
2021/03/15 04:31:16;;;;;;;;;;;;;;;;;;5043903;28;991;-59
2021/03/15 04:33:41;;;;;;;;;;;;;;;;;;5035981;28;955;-61
2021/03/15 04:36:07;;;;;;;;;;;;;;;;;;5035698;28;831;-59
2021/03/15 04:38:33;;;;;;;;;;;;;;;;;;5027899;28;831;-58
2021/03/15 04:40:59;;;;;;;;;;;;;;;;;;5027464;28;1121;-61
2021/03/15 04:43:25;;;;;;;;;;;;;;;;;;5027300;28;959;-62
2021/03/15 04:45:51;;;;;;;;;;;;;;;;;;5027540;28;833;-61
2021/03/15 04:48:25;;;;;;;;;;;;;;;;;;5026780;28;1971;-60
2021/03/15 04:50:53;;;;;;;;;;;;;;;;;;5027254;28;917;-62
2021/03/15 04:53:19;;;;;;;;;;;;;;;;;;5039077;28;1130;-59
2021/03/15 04:55:45;;;;;;;;;;;;;;;;;;5067428;28;811;-61
2021/03/15 04:58:11;;;;;;;;;;;;;;;;;;5051844;28;1036;-58
2021/03/15 05:00:42;;;;;;;;;;;;;;;;;;5043834;28;1148;-60
2021/03/15 05:03:08;;;;;;;;;;;;;;;;;;5045631;28;910;-62
2021/03/15 05:05:34;;;;;;;;;;;;;;;;;;5045631;28;1394;-61
2021/03/15 05:08:01;;;;;;;;;;;;;;;;;;5047864;28;1893;-61
2021/03/15 05:10:27;;;;;;;;;;;;;;;;;;5046264;28;811;-59
2021/03/15 05:12:52;;;;;;;;;;;;;;;;;;5046809;28;830;-65
2021/03/15 05:15:18;;;;;;;;;;;;;;;;;;5047828;28;891;-61
2021/03/15 05:17:44;;;;;;;;;;;;;;;;;;5046235;28;827;-61
2021/03/15 05:20:11;;;;;;;;;;;;;;;;;;5047085;28;921;-59
2021/03/15 05:22:37;;;;;;;;;;;;;;;;;;5047697;28;870;-59
2021/03/15 05:25:03;;;;;;;;;;;;;;;;;;5047989;28;857;-62
2021/03/15 05:27:30;;;;;;;;;;;;;;;;;;5046743;28;1975;-63
2021/03/15 05:29:57;;;;;;;;;;;;;;;;;;5039176;28;1607;-59
2021/03/15 05:32:24;;;;;;;;;;;;;;;;;;5040506;28;831;-59
2021/03/15 05:34:51;;;;;;;;;;;;;;;;;;5040737;28;1128;-61
2021/03/15 05:37:17;;;;;;;;;;;;;;;;;;5027499;28;932;-64
2021/03/15 05:39:42;;;;;;;;;;;;;;;;;;5026814;28;885;-59
2021/03/15 05:42:15;;;;;;;;;;;;;;;;;;5026173;28;886;-62
2021/03/15 05:44:46;;;;;;;;;;;;;;;;;;5026069;28;954;-58
2021/03/15 05:47:30;;;;;;;;;;;;;;;;;;5026560;28;1981;-59
2021/03/15 05:50:14;;;;;;;;;;;;;;;;;;5027388;28;800;-61
2021/03/15 05:52:42;;;;;;;;;;;;;;;;;;5027260;28;1016;-58
2021/03/15 05:55:16;;;;;;;;;;;;;;;;;;5065438;28;988;-60
2021/03/15 05:58:00;;;;;;;;;;;;;;;;;;5065506;28;914;-59
2021/03/15 06:00:36;;;;;;;;;;;;;;;;;;5059438;28;854;-59
2021/03/15 06:03:19;;;;;;;;;;;;;;;;;;5025856;28;1089;-58
2021/03/15 06:05:46;;;;;;;;;;;;;;;;;;5026241;28;882;-58
2021/03/15 06:08:22;;;;;;;;;;;;;;;;;;5027000;28;1897;-61
2021/03/15 06:11:02;;;;;;;;;;;;;;;;;;5039115;28;876;-58
2021/03/15 06:13:28;;;;;;;;;;;;;;;;;;5044830;28;885;-57
2021/03/15 06:15:54;;;;;;;;;;;;;;;;;;5045255;28;1087;-59
2021/03/15 06:18:20;;;;;;;;;;;;;;;;;;5046631;28;839;-58
2021/03/15 06:20:47;;;;;;;;;;;;;;;;;;5045710;28;1155;-57
2021/03/15 06:23:16;;;;;;;;;;;;;;;;;;5037556;28;1021;-58
2021/03/15 06:25:42;;;;;;;;;;;;;;;;;;5039757;28;1070;-58
2021/03/15 06:28:08;;;;;;;;;;;;;;;;;;5046276;28;1889;-60
2021/03/15 06:30:33;;;;;;;;;;;;;;;;;;5045615;28;1159;-61
2021/03/15 06:32:59;;;;;;;;;;;;;;;;;;5046698;28;815;-59
2021/03/15 06:35:26;;;;;;;;;;;;;;;;;;5046683;28;878;-60
2021/03/15 06:37:52;;;;;;;;;;;;;;;;;;5047247;28;1363;-59
2021/03/15 06:40:19;;;;;;;;;;;;;;;;;;5051325;28;811;-60
2021/03/15 06:42:45;;;;;;;;;;;;;;;;;;5050262;28;1262;-60
2021/03/15 06:45:11;;;;;;;;;;;;;;;;;;5050220;28;1088;-60
2021/03/15 06:47:36;;;;;;;;;;;;;;;;;;5050439;28;1902;-60
2021/03/15 06:50:02;;;;;;;;;;;;;;;;;;5050227;28;843;-62
2021/03/15 06:52:28;;;;;;;;;;;;;;;;;;5050096;28;910;-60
2021/03/15 06:54:58;;;;;;;;;;;;;;;;;;5069074;28;1099;-61
2021/03/15 06:57:23;;;;;;;;;;;;;;;;;;5070344;28;873;-60
2021/03/15 06:59:56;;;;;;;;;;;;;;;;;;5071304;28;898;-60
2021/03/15 07:02:22;;;;;;;;;;;;;;;;;;5056551;28;1260;-64
2021/03/15 07:04:48;;;;;;;;;;;;;;;;;;5048785;28;1171;-67
2021/03/15 07:07:21;;;;;;;;;;;;;;;;;;5049379;28;1897;-60
2021/03/15 07:09:48;;;;;;;;;;;;;;;;;;5049265;28;1226;-60
2021/03/15 07:12:17;;;;;;;;;;;;;;;;;;5050536;28;1223;-64
2021/03/15 07:14:42;;;;;;;;;;;;;;;;;;5049737;28;1308;-60
2021/03/15 07:17:08;;;;;;;;;;;;;;;;;;5051190;28;1110;-59
2021/03/15 07:19:34;;;;;;;;;;;;;;;;;;5049766;28;1257;-59
2021/03/15 07:22:16;;;;;;;;;;;;;;;;;;5049073;28;1225;-59
2021/03/15 07:24:41;;;;;;;;;;;;;;;;;;5047580;28;1201;-59
2021/03/15 07:27:06;;;;;;;;;;;;;;;;;;5048836;28;1902;-62
2021/03/15 07:29:33;;;;;;;;;;;;;;;;;;5045753;28;1158;-61
2021/03/15 07:31:58;;;;;;;;;;;;;;;;;;5048921;28;1383;-62
2021/03/15 07:34:24;;;;;;;;;;;;;;;;;;5048352;28;1240;-61
2021/03/15 07:36:55;;;;;;;;;;;;;;;;;;5050978;28;921;-61
2021/03/15 07:39:22;;;;;;;;;;;;;;;;;;5050598;28;803;-60
2021/03/15 07:41:49;;;;;;;;;;;;;;;;;;5050602;28;831;-60
2021/03/15 07:44:22;;;;;;;;;;;;;;;;;;5048882;28;1237;-62
2021/03/15 07:46:48;;;;;;;;;;;;;;;;;;5049410;28;1304;-60
2021/03/15 07:49:42;;;;;;;;;;;;;;;;;;5048889;28;1898;-60
2021/03/15 07:52:08;;;;;;;;;;;;;;;;;;5042035;28;1491;-59
2021/03/15 07:54:34;;;;;;;;;;;;;;;;;;5047182;28;1615;-62
2021/03/15 07:57:19;;;;;;;;;;;;;;;;;;5041403;28;1558;-61
2021/03/15 07:59:47;;;;;;;;;;;;;;;;;;5047384;28;979;-59
2021/03/15 08:02:14;;;;;;;;;;;;;;;;;;5050537;28;1098;-59
2021/03/15 08:04:40;;;;;;;;;;;;;;;;;;5035030;28;1088;-60
2021/03/15 08:07:06;;;;;;;;;;;;;;;;;;5045538;28;1893;-59
2021/03/15 08:09:31;;;;;;;;;;;;;;;;;;5037227;28;891;-59
2021/03/15 08:11:57;;;;;;;;;;;;;;;;;;5042229;28;1031;-61
2021/03/15 08:14:23;;;;;;;;;;;;;;;;;;5044197;28;962;-61
2021/03/15 08:16:49;;;;;;;;;;;;;;;;;;5041395;28;881;-63
2021/03/15 08:19:19;;;;;;;;;;;;;;;;;;5048943;28;1120;-61
2021/03/15 08:21:45;;;;;;;;;;;;;;;;;;5046032;28;845;-61
2021/03/15 08:24:13;;;;;;;;;;;;;;;;;;5044896;28;879;-63
2021/03/15 08:26:40;;;;;;;;;;;;;;;;;;5046993;28;863;-59
2021/03/15 08:29:06;;;;;;;;;;;;;;;;;;5048522;28;1905;-59
2021/03/15 08:31:38;;;;;;;;;;;;;;;;;;5049015;28;1153;-59
2021/03/15 08:34:04;;;;;;;;;;;;;;;;;;5044931;28;1137;-60
2021/03/15 08:36:50;;;;;;;;;;;;;;;;;;5031055;28;851;-61
2021/03/15 08:39:27;;;;;;;;;;;;;;;;;;5047195;28;1531;-65
2021/03/15 08:42:11;;;;;;;;;;;;;;;;;;5047846;28;890;-64
2021/03/15 08:44:38;;;;;;;;;;;;;;;;;;5048330;28;839;-64
2021/03/15 08:47:04;;;;;;;;;;;;;;;;;;5048273;28;895;-62
2021/03/15 08:49:31;;;;;;;;;;;;;;;;;;5048030;28;941;-62
2021/03/15 08:51:57;;;;;;;;;;;;;;;;;;5048179;28;903;-59
2021/03/15 08:54:39;;;;;;;;;;;;;;;;;;5062395;28;1102;-61
2021/03/15 08:57:05;;;;;;;;;;;;;;;;;;5060853;28;870;-63
2021/03/15 08:59:32;;;;;;;;;;;;;;;;;;5048864;28;827;-62
2021/03/15 09:02:00;;;;;;;;;;;;;;;;;;5047325;28;1628;-60
2021/03/15 09:04:29;;;;;;;;;;;;;;;;;;5047094;28;982;-59
2021/03/15 09:06:54;;;;;;;;;;;;;;;;;;5047883;28;819;-61
2021/03/15 09:09:30;;;;;;;;;;;;;;;;;;5048852;28;1983;-60
2021/03/15 09:11:57;;;;;;;;;;;;;;;;;;5047223;28;1001;-60
2021/03/15 09:14:26;;;;;;;;;;;;;;;;;;5038415;28;1487;-62
2021/03/15 09:16:57;;;;;;;;;;;;;;;;;;5043178;28;1036;-63
2021/03/15 09:19:22;;;;;;;;;;;;;;;;;;5046763;28;926;-60
2021/03/15 09:21:57;;;;;;;;;;;;;;;;;;5048007;28;858;-58
2021/03/15 09:24:36;;;;;;;;;;;;;;;;;;5048312;28;917;-59
2021/03/15 09:27:02;;;;;;;;;;;;;;;;;;5033314;28;1788;-59
2021/03/15 09:29:29;;;;;;;;;;;;;;;;;;5041598;28;1890;-58
2021/03/15 09:32:02;;;;;;;;;;;;;;;;;;5043771;28;1380;-59
2021/03/15 09:34:28;;;;;;;;;;;;;;;;;;5046272;28;1722;-60
2021/03/15 09:36:58;;;;;;;;;;;;;;;;;;5044777;28;898;-58
2021/03/15 09:39:27;;;;;;;;;;;;;;;;;;5046499;28;1190;-59
2021/03/15 09:41:53;;;;;;;;;;;;;;;;;;5046847;28;1209;-61
2021/03/15 09:44:31;;;;;;;;;;;;;;;;;;5046339;28;1575;-59
2021/03/15 09:46:58;;;;;;;;;;;;;;;;;;5039647;28;1231;-64
2021/03/15 09:49:38;;;;;;;;;;;;;;;;;;5046643;28;1976;-60
2021/03/15 09:52:09;;;;;;;;;;;;;;;;;;5044624;28;1254;-62
2021/03/15 09:54:41;;;;;;;;;;;;;;;;;;5046335;28;1191;-62
2021/03/15 09:57:06;;;;;;;;;;;;;;;;;;5047264;28;864;-64
2021/03/15 09:59:32;;;;;;;;;;;;;;;;;;5047348;28;1246;-59
2021/03/15 10:01:57;;;;;;;;;;;;;;;;;;5046466;28;1616;-63
2021/03/15 10:04:28;;;;;;;;;;;;;;;;;;5046565;28;1104;-61
2021/03/15 10:06:54;;;;;;;;;;;;;;;;;;5043951;28;1026;-62
2021/03/15 10:09:19;;;;;;;;;;;;;;;;;;5045623;28;2000;-59
2021/03/15 10:11:45;;;;;;;;;;;;;;;;;;5043091;28;1997;-59
2021/03/15 10:14:10;;;;;;;;;;;;;;;;;;5046697;28;1147;-60
2021/03/15 10:16:50;;;;;;;;;;;;;;;;;;5046903;28;1199;-59
2021/03/15 10:19:27;;;;;;;;;;;;;;;;;;5045611;28;1550;-58
2021/03/15 10:21:53;;;;;;;;;;;;;;;;;;5035797;28;951;-60
2021/03/15 10:24:33;;;;;;;;;;;;;;;;;;5047324;28;862;-60
2021/03/15 10:26:59;;;;;;;;;;;;;;;;;;5004825;28;1698;-61
2021/03/15 10:29:25;;;;;;;;;;;;;;;;;;5055388;28;1977;-61
2021/03/15 10:31:50;;;;;;;;;;;;;;;;;;5053467;28;1636;-61
2021/03/15 10:34:16;;;;;;;;;;;;;;;;;;5055640;28;1728;-61
2021/03/15 10:36:42;;;;;;;;;;;;;;;;;;5056127;28;1154;-62
2021/03/15 10:39:08;;;;;;;;;;;;;;;;;;5066256;28;1165;-60
2021/03/15 10:41:33;;;;;;;;;;;;;;;;;;5052315;28;1812;-60
2021/03/15 10:44:04;;;;;;;;;;;;;;;;;;5064356;28;1087;-62
2021/03/15 10:46:46;;;;;;;;;;;;;;;;;;5046586;28;905;-61
2021/03/15 10:49:17;;;;;;;;;;;;;;;;;;5052818;28;1909;-61
2021/03/15 10:51:45;;;;;;;;;;;;;;;;;;5050328;28;1737;-62
2021/03/15 10:54:10;;;;;;;;;;;;;;;;;;5040896;28;1698;-62
2021/03/15 10:56:36;;;;;;;;;;;;;;;;;;5059566;28;1149;-62
2021/03/15 10:59:01;;;;;;;;;;;;;;;;;;5045461;28;1150;-61
2021/03/15 11:01:27;;;;;;;;;;;;;;;;;;5049656;28;1307;-62
2021/03/15 11:03:53;;;;;;;;;;;;;;;;;;5048160;28;1445;-62
2021/03/15 11:06:21;;;;;;;;;;;;;;;;;;5048585;28;1465;-61
2021/03/15 11:08:55;;;;;;;;;;;;;;;;;;5066799;28;1901;-60
2021/03/15 11:11:31;;;;;;;;;;;;;;;;;;5052807;28;1361;-62
2021/03/15 11:13:57;;;;;;;;;;;;;;;;;;5030372;28;1274;-62
2021/03/15 11:16:24;;;;;;;;;;;;;;;;;;5046124;28;1068;-62
2021/03/15 11:19:05;;;;;;;;;;;;;;;;;;5043528;28;1704;-62
2021/03/15 11:21:34;;;;;;;;;;;;;;;;;;5033132;28;1096;-62
2021/03/15 11:24:00;;;;;;;;;;;;;;;;;;5045457;28;1090;-62
2021/03/15 11:26:25;;;;;;;;;;;;;;;;;;5047803;28;1792;-61
2021/03/15 11:28:52;;;;;;;;;;;;;;;;;;5054076;28;1957;-62
2021/03/15 11:31:18;;;;;;;;;;;;;;;;;;5042828;28;831;-61
2021/03/15 11:33:57;;;;;;;;;;;;;;;;;;5042598;28;973;-61
2021/03/15 11:36:24;;;;;;;;;;;;;;;;;;5049118;28;1222;-63
2021/03/15 11:38:55;;;;;;;;;;;;;;;;;;5050184;28;1163;-62
2021/03/15 11:41:22;;;;;;;;;;;;;;;;;;5049940;28;1217;-61
2021/03/15 11:43:47;;;;;;;;;;;;;;;;;;5046613;28;1384;-60
2021/03/15 11:46:13;;;;;;;;;;;;;;;;;;5047613;28;1158;-61
2021/03/15 11:48:39;;;;;;;;;;;;;;;;;;5047685;28;1966;-61
2021/03/15 11:51:04;;;;;;;;;;;;;;;;;;5047222;28;1156;-60
2021/03/15 11:53:30;;;;;;;;;;;;;;;;;;5044328;28;1155;-61
2021/03/15 11:55:55;;;;;;;;;;;;;;;;;;5048665;28;1147;-61
2021/03/15 11:58:21;;;;;;;;;;;;;;;;;;5050525;28;831;-60
2021/03/15 12:00:46;;;;;;;;;;;;;;;;;;5049537;28;803;-61
2021/03/15 12:03:12;;;;;;;;;;;;;;;;;;5048949;28;854;-60
2021/03/15 12:05:37;;;;;;;;;;;;;;;;;;5048740;28;882;-60
2021/03/15 12:08:03;;;;;;;;;;;;;;;;;;5037041;28;1894;-61
2021/03/15 12:10:28;;;;;;;;;;;;;;;;;;5048125;28;1300;-60
2021/03/15 12:12:53;;;;;;;;;;;;;;;;;;5048521;28;1218;-61
2021/03/15 12:15:19;;;;;;;;;;;;;;;;;;5049546;28;1222;-60
2021/03/15 12:17:44;;;;;;;;;;;;;;;;;;5048327;28;1266;-61
2021/03/15 12:20:10;;;;;;;;;;;;;;;;;;5044832;28;1620;-61
2021/03/15 12:22:36;;;;;;;;;;;;;;;;;;5047068;28;1395;-61
2021/03/15 12:25:02;;;;;;;;;;;;;;;;;;5047709;28;1179;-61
2021/03/15 12:27:27;;;;;;;;;;;;;;;;;;5045659;28;1997;-61
2021/03/15 12:29:53;;;;;;;;;;;;;;;;;;5044903;28;1141;-61
2021/03/15 12:32:18;;;;;;;;;;;;;;;;;;5048604;28;1236;-60
2021/03/15 12:34:44;;;;;;;;;;;;;;;;;;5047923;28;1122;-61
2021/03/15 12:37:09;;;;;;;;;;;;;;;;;;5049003;28;1261;-61
2021/03/15 12:39:35;;;;;;;;;;;;;;;;;;5042553;28;1084;-60
2021/03/15 12:42:00;;;;;;;;;;;;;;;;;;5057139;28;1035;-61
2021/03/15 12:44:25;;;;;;;;;;;;;;;;;;5066850;28;939;-60
2021/03/15 12:46:51;;;;;;;;;;;;;;;;;;5056569;28;1395;-60
2021/03/15 12:49:16;;;;;;;;;;;;;;;;;;5027261;28;1918;-60
2021/03/15 12:51:42;;;;;;;;;;;;;;;;;;5026621;28;871;-60
2021/03/15 12:54:07;;;;;;;;;;;;;;;;;;5038706;28;1162;-60
2021/03/15 12:56:33;;;;;;;;;;;;;;;;;;5048349;28;938;-60
2021/03/15 12:58:58;;;;;;;;;;;;;;;;;;5048393;28;843;-61
2021/03/15 13:01:23;;;;;;;;;;;;;;;;;;5047971;28;895;-60
2021/03/15 13:03:49;;;;;;;;;;;;;;;;;;5048102;28;867;-60
2021/03/15 13:06:15;;;;;;;;;;;;;;;;;;5048488;28;886;-60
2021/03/15 13:08:41;;;;;;;;;;;;;;;;;;5048336;28;1913;-60
2021/03/15 13:11:06;;;;;;;;;;;;;;;;;;5047689;28;929;-60
2021/03/15 13:13:32;;;;;;;;;;;;;;;;;;5048135;28;838;-60
2021/03/15 13:15:57;;;;;;;;;;;;;;;;;;5045942;28;1233;-60
2021/03/15 13:18:22;;;;;;;;;;;;;;;;;;5046552;28;888;-61
2021/03/15 13:20:48;;;;;;;;;;;;;;;;;;5047374;28;823;-60
2021/03/15 13:23:14;;;;;;;;;;;;;;;;;;5048009;28;830;-60
2021/03/15 13:25:39;;;;;;;;;;;;;;;;;;5047177;28;830;-60
2021/03/15 13:28:04;;;;;;;;;;;;;;;;;;5047493;28;1993;-60
2021/03/15 13:30:30;;;;;;;;;;;;;;;;;;5047958;28;878;-60
2021/03/15 13:32:55;;;;;;;;;;;;;;;;;;5047736;28;941;-60
2021/03/15 13:35:21;;;;;;;;;;;;;;;;;;5047511;28;901;-60
2021/03/15 13:37:46;;;;;;;;;;;;;;;;;;5047626;28;863;-60
2021/03/15 13:40:12;;;;;;;;;;;;;;;;;;5045659;28;1593;-60
2021/03/15 13:42:37;;;;;;;;;;;;;;;;;;5066898;28;1158;-60
2021/03/15 13:45:04;;;;;;;;;;;;;;;;;;5066981;28;819;-60
2021/03/15 13:47:29;;;;;;;;;;;;;;;;;;5067133;28;1905;-60
2021/03/15 13:49:55;;;;;;;;;;;;;;;;;;5067332;28;834;-61
2021/03/15 13:52:21;;;;;;;;;;;;;;;;;;5067717;28;925;-60
2021/03/15 13:54:46;;;;;;;;;;;;;;;;;;5046874;28;1294;-60
2021/03/15 13:57:12;;;;;;;;;;;;;;;;;;5047776;28;834;-60
2021/03/15 13:59:37;;;;;;;;;;;;;;;;;;5047455;28;823;-60
2021/03/15 14:02:03;;;;;;;;;;;;;;;;;;5047673;28;1320;-61
2021/03/15 14:04:28;;;;;;;;;;;;;;;;;;5048133;28;835;-60
2021/03/15 14:06:53;;;;;;;;;;;;;;;;;;5030391;28;1676;-61
2021/03/15 14:09:19;;;;;;;;;;;;;;;;;;5037991;28;1979;-60
2021/03/15 14:11:44;;;;;;;;;;;;;;;;;;5047549;28;832;-60
2021/03/15 14:14:10;;;;;;;;;;;;;;;;;;5046361;28;854;-60
2021/03/15 14:16:35;;;;;;;;;;;;;;;;;;5046935;28;804;-60
2021/03/15 14:19:00;;;;;;;;;;;;;;;;;;5047494;28;866;-60
2021/03/15 14:21:26;;;;;;;;;;;;;;;;;;5048017;28;824;-60
2021/03/15 14:23:51;;;;;;;;;;;;;;;;;;5048167;28;847;-60
2021/03/15 14:26:17;;;;;;;;;;;;;;;;;;5046720;28;839;-60
2021/03/15 14:28:42;;;;;;;;;;;;;;;;;;5047249;28;1951;-60
2021/03/15 14:31:08;;;;;;;;;;;;;;;;;;5047580;28;855;-60
2021/03/15 14:33:34;;;;;;;;;;;;;;;;;;5045238;28;1437;-60
2021/03/15 14:35:59;;;;;;;;;;;;;;;;;;5046485;28;1155;-60
2021/03/15 14:38:24;;;;;;;;;;;;;;;;;;5047712;28;930;-60
2021/03/15 14:40:50;;;;;;;;;;;;;;;;;;5047993;28;878;-60
2021/03/15 14:43:15;;;;;;;;;;;;;;;;;;5049346;28;1213;-60
2021/03/15 14:45:41;;;;;;;;;;;;;;;;;;5047534;28;1007;-60
2021/03/15 14:48:08;;;;;;;;;;;;;;;;;;5046934;28;1906;-60
2021/03/15 14:50:33;;;;;;;;;;;;;;;;;;5047368;28;816;-60
2021/03/15 14:52:59;;;;;;;;;;;;;;;;;;5041370;28;1555;-60
2021/03/15 14:55:24;;;;;;;;;;;;;;;;;;5044286;28;1160;-60
2021/03/15 14:57:50;;;;;;;;;;;;;;;;;;5050655;28;1703;-60
2021/03/15 15:00:15;;;;;;;;;;;;;;;;;;5059447;28;1206;-60
2021/03/15 15:02:41;;;;;;;;;;;;;;;;;;5068147;28;1098;-60
2021/03/15 15:05:06;;;;;;;;;;;;;;;;;;5051762;28;1215;-60
2021/03/15 15:07:32;;;;;;;;;;;;;;;;;;5050146;28;1893;-60
2021/03/15 15:09:58;;;;;;;;;;;;;;;;;;5050810;28;843;-60
2021/03/15 15:12:23;;;;;;;;;;;;;;;;;;5050252;28;1129;-61
2021/03/15 15:14:49;;;;;;;;;;;;;;;;;;5053200;28;1191;-60
2021/03/15 15:17:14;;;;;;;;;;;;;;;;;;5049909;28;1254;-60
2021/03/15 15:19:40;;;;;;;;;;;;;;;;;;5051114;28;891;-61
2021/03/15 15:22:05;;;;;;;;;;;;;;;;;;5050670;28;962;-60
2021/03/15 15:24:31;;;;;;;;;;;;;;;;;;5050266;28;811;-60
2021/03/15 15:26:57;;;;;;;;;;;;;;;;;;5050249;28;789;-61
2021/03/15 15:29:22;;;;;;;;;;;;;;;;;;5047466;28;1930;-61
2021/03/15 15:31:47;;;;;;;;;;;;;;;;;;5062034;28;1063;-60
2021/03/15 15:34:14;;;;;;;;;;;;;;;;;;5069186;28;894;-61
2021/03/15 15:36:39;;;;;;;;;;;;;;;;;;5068677;28;814;-60
2021/03/15 15:39:04;;;;;;;;;;;;;;;;;;5069983;28;897;-61
2021/03/15 15:41:30;;;;;;;;;;;;;;;;;;5069993;28;878;-61
2021/03/15 15:43:55;;;;;;;;;;;;;;;;;;5070352;28;1161;-60
2021/03/15 15:46:21;;;;;;;;;;;;;;;;;;5066290;28;1058;-60
2021/03/15 15:48:47;;;;;;;;;;;;;;;;;;5048773;28;1911;-61
2021/03/15 15:51:12;;;;;;;;;;;;;;;;;;5040886;28;1296;-61
2021/03/15 15:53:38;;;;;;;;;;;;;;;;;;5044855;28;1027;-62
2021/03/15 15:56:03;;;;;;;;;;;;;;;;;;5046251;28;1930;-60
2021/03/15 15:58:29;;;;;;;;;;;;;;;;;;5036897;28;843;-61
2021/03/15 16:00:54;;;;;;;;;;;;;;;;;;5030110;28;1085;-61
2021/03/15 16:03:20;;;;;;;;;;;;;;;;;;5030350;28;843;-61
2021/03/15 16:05:45;;;;;;;;;;;;;;;;;;5049393;28;1055;-60
2021/03/15 16:08:11;;;;;;;;;;;;;;;;;;5053394;28;1914;-62
2021/03/15 16:10:37;;;;;;;;;;;;;;;;;;5046811;28;1193;-61
2021/03/15 16:13:02;;;;;;;;;;;;;;;;;;5046123;28;1475;-62
2021/03/15 16:15:28;;;;;;;;;;;;;;;;;;5047762;28;1222;-63
2021/03/15 16:17:53;;;;;;;;;;;;;;;;;;5048112;28;1069;-61
2021/03/15 16:20:18;;;;;;;;;;;;;;;;;;5049487;28;1357;-60
2021/03/15 16:22:44;;;;;;;;;;;;;;;;;;5048464;28;1493;-60
2021/03/15 16:25:09;;;;;;;;;;;;;;;;;;5037646;28;1261;-60
2021/03/15 16:27:38;;;;;;;;;;;;;;;;;;5029212;28;1901;-60
2021/03/15 16:30:07;;;;;;;;;;;;;;;;;;5028687;28;854;-61
2021/03/15 16:32:33;;;;;;;;;;;;;;;;;;5034656;28;882;-60
2021/03/15 16:34:58;;;;;;;;;;;;;;;;;;5048555;28;1172;-60
2021/03/15 16:37:25;;;;;;;;;;;;;;;;;;5048674;28;1167;-61
2021/03/15 16:39:51;;;;;;;;;;;;;;;;;;5046369;28;1214;-61
2021/03/15 16:42:20;;;;;;;;;;;;;;;;;;5048473;28;1107;-61
2021/03/15 16:44:45;;;;;;;;;;;;;;;;;;5048385;28;855;-61
2021/03/15 16:47:10;;;;;;;;;;;;;;;;;;5048626;28;885;-61
2021/03/15 16:49:36;;;;;;;;;;;;;;;;;;5048151;28;1981;-61
2021/03/15 16:52:01;;;;;;;;;;;;;;;;;;5048522;28;1203;-61
2021/03/15 16:54:28;;;;;;;;;;;;;;;;;;5051033;28;1090;-61
2021/03/15 16:56:53;;;;;;;;;;;;;;;;;;5048239;28;1155;-61
2021/03/15 16:59:19;;;;;;;;;;;;;;;;;;5049570;28;756;-61
2021/03/15 17:01:44;;;;;;;;;;;;;;;;;;5041519;28;1080;-60
2021/03/15 17:04:09;;;;;;;;;;;;;;;;;;5068421;28;822;-61
2021/03/15 17:06:35;;;;;;;;;;;;;;;;;;5051067;28;1071;-60
2021/03/15 17:09:00;;;;;;;;;;;;;;;;;;5048647;28;1890;-60
2021/03/15 17:11:26;;;;;;;;;;;;;;;;;;5037665;28;915;-61